Time;durP1;ratioP1;P1;durP2;ratioP2;P2;SDS_P1;SDS_P2;PMS_P1;PMS_P2;Temp;Humidity;BMP_temperature;BMP_pressure;BME280_temperature;BME280_humidity;BME280_pressure;Samples;Min_cycle;Max_cycle;Signal;HPM_P1;HPM_P2
2024/01/13 00:00:44;;;;;;;;;75.67;53.33;;;;;1.35;73.32;102650.44;4979749;28;45268;-63
2024/01/13 00:03:09;;;;;;;;;69.33;48.33;;;;;1.25;74.14;102669.53;4980370;28;46633;-62
2024/01/13 00:05:35;;;;;;;;;67.67;49.33;;;;;1.26;73.87;102678.22;4977778;28;48017;-64
2024/01/13 00:08:01;;;;;;;;;64.67;49.33;;;;;1.37;74.25;102666.03;4977974;28;45413;-62
2024/01/13 00:10:26;;;;;;;;;61.67;41.33;;;;;1.53;75.79;102668.03;4993424;28;45567;-67
2024/01/13 00:12:52;;;;;;;;;64.67;42.00;;;;;1.65;74.18;102659.44;4976426;28;45492;-60
2024/01/13 00:15:18;;;;;;;;;55.00;39.50;;;;;1.66;72.73;102632.81;4978076;28;45497;-62
2024/01/13 00:17:44;;;;;;;;;51.25;38.75;;;;;2.02;78.92;102655.91;4978520;28;45383;-59
2024/01/13 00:20:10;;;;;;;;;59.75;42.50;;;;;2.16;73.95;102641.28;4978088;28;45451;-62
2024/01/13 00:22:35;;;;;;;;;58.50;43.50;;;;;2.28;72.49;102645.59;4977447;28;45538;-61
2024/01/13 00:25:01;;;;;;;;;59.50;41.50;;;;;2.34;71.94;102627.00;4976456;28;45553;-62
2024/01/13 00:27:27;;;;;;;;;65.33;44.00;;;;;2.47;72.31;102632.19;4978765;28;45499;-61
2024/01/13 00:29:53;;;;;;;;;64.00;46.33;;;;;2.49;71.44;102630.59;4976677;28;45518;-60
2024/01/13 00:32:18;;;;;;;;;61.75;42.75;;;;;2.57;70.63;102625.91;4978078;28;45494;-61
2024/01/13 00:34:44;;;;;;;;;66.00;47.33;;;;;2.52;70.79;102619.56;4977601;28;45410;-61
2024/01/13 00:37:09;;;;;;;;;70.67;49.33;;;;;2.45;71.45;102622.53;4975946;28;45343;-62
2024/01/13 00:39:35;;;;;;;;;68.67;47.00;;;;;2.34;71.53;102617.53;4975845;28;45537;-60
2024/01/13 00:42:01;;;;;;;;;80.00;56.33;;;;;2.13;71.45;102595.44;4977987;28;45348;-60
2024/01/13 00:44:27;;;;;;;;;81.33;58.00;;;;;2.07;71.87;102606.28;4975501;28;48000;-62
2024/01/13 00:46:53;;;;;;;;;94.00;66.33;;;;;2.06;72.06;102619.97;4975372;28;46324;-60
2024/01/13 00:49:18;;;;;;;;;82.33;57.67;;;;;1.85;72.38;102613.38;4977499;28;45759;-60
2024/01/13 00:51:44;;;;;;;;;84.67;61.67;;;;;1.77;72.86;102609.41;4977877;28;45390;-66
2024/01/13 00:54:10;;;;;;;;;84.33;56.67;;;;;1.80;72.79;102609.59;4976539;28;45489;-63
2024/01/13 00:56:36;;;;;;;;;102.75;81.25;;;;;1.80;73.00;102614.75;4976664;28;45574;-62
2024/01/13 00:59:01;;;;;;;;;113.25;87.25;;;;;1.71;73.79;102604.72;4976750;28;45508;-59
2024/01/13 01:01:27;;;;;;;;;86.67;64.33;;;;;1.72;73.63;102603.91;4977457;28;45356;-59
2024/01/13 01:03:53;;;;;;;;;73.67;52.00;;;;;1.79;73.02;102613.88;4977106;28;46263;-64
2024/01/13 01:06:18;;;;;;;;;70.33;46.33;;;;;1.83;73.21;102617.56;4968577;28;45567;-61
2024/01/13 01:08:44;;;;;;;;;81.33;56.00;;;;;1.60;73.57;102598.81;4977691;28;45427;-59
2024/01/13 01:11:10;;;;;;;;;74.67;53.33;;;;;1.64;74.20;102612.84;4972034;28;45418;-60
2024/01/13 01:13:36;;;;;;;;;82.67;56.00;;;;;1.51;73.80;102595.59;4976218;28;46577;-63
2024/01/13 01:16:01;;;;;;;;;79.00;56.00;;;;;1.53;74.00;102604.34;4976306;28;45612;-59
2024/01/13 01:18:27;;;;;;;;;84.67;57.67;;;;;1.53;74.16;102612.09;4976258;28;45566;-62
2024/01/13 01:20:53;;;;;;;;;72.00;50.33;;;;;1.53;74.78;102619.84;4977438;28;45490;-59
2024/01/13 01:23:18;;;;;;;;;74.00;52.33;;;;;1.46;75.45;102621.09;4977065;28;46255;-60
2024/01/13 01:25:44;;;;;;;;;68.00;47.00;;;;;1.36;75.25;102618.69;4976095;28;45240;-60
2024/01/13 01:28:09;;;;;;;;;67.33;47.00;;;;;1.37;74.92;102606.66;4976503;28;45315;-60
2024/01/13 01:30:35;;;;;;;;;63.67;46.33;;;;;1.40;74.84;102609.44;4977316;28;45479;-59
2024/01/13 01:33:00;;;;;;;;;73.67;49.00;;;;;1.46;74.75;102615.06;4992106;28;45623;-61
2024/01/13 01:35:26;;;;;;;;;66.50;45.00;;;;;1.48;74.79;102613.47;4976201;28;45432;-62
2024/01/13 01:37:51;;;;;;;;;67.00;47.33;;;;;1.40;74.81;102605.22;4976217;28;45495;-62
2024/01/13 01:40:20;;;;;;;;;71.33;47.67;;;;;1.38;75.39;102611.94;4977823;28;45427;-61
2024/01/13 01:42:45;;;;;;;;;62.00;47.33;;;;;1.41;75.36;102622.47;4977001;28;45423;-62
2024/01/13 01:45:11;;;;;;;;;64.00;46.33;;;;;1.43;75.93;102626.06;4975675;28;45511;-59
2024/01/13 01:47:40;;;;;;;;;68.00;47.00;;;;;1.42;74.74;102628.53;4978716;28;45427;-60
2024/01/13 01:50:08;;;;;;;;;61.00;45.00;;;;;1.35;74.97;102613.41;4978033;28;45481;-60
2024/01/13 01:52:34;;;;;;;;;60.00;43.67;;;;;1.29;75.32;102607.84;4977085;28;46246;-61
2024/01/13 01:55:00;;;;;;;;;64.67;45.67;;;;;1.42;75.64;102624.25;4976963;28;45518;-61
2024/01/13 01:57:25;;;;;;;;;64.67;44.67;;;;;1.42;74.98;102600.13;4977183;28;45405;-62
2024/01/13 01:59:51;;;;;;;;;65.67;47.33;;;;;1.35;75.01;102583.31;4977998;28;45425;-59
2024/01/13 02:02:17;;;;;;;;;63.33;40.67;;;;;1.47;75.02;102603.91;4975926;28;46322;-60
2024/01/13 02:04:43;;;;;;;;;60.33;44.00;;;;;1.42;75.33;102600.13;4975008;28;45546;-62
2024/01/13 02:07:09;;;;;;;;;61.00;42.00;;;;;1.44;75.44;102598.56;4976862;28;45754;-60
2024/01/13 02:09:35;;;;;;;;;60.25;43.75;;;;;1.25;74.64;102568.88;4976933;28;45543;-60
2024/01/13 02:12:01;;;;;;;;;61.50;44.25;;;;;1.48;74.85;102605.72;4976948;28;45551;-64
2024/01/13 02:14:27;;;;;;;;;70.00;44.00;;;;;1.47;74.94;102609.09;4976925;28;45450;-62
2024/01/13 02:16:53;;;;;;;;;64.67;43.67;;;;;1.27;75.14;102582.78;4959663;28;45328;-59
2024/01/13 02:19:19;;;;;;;;;61.00;43.00;;;;;1.37;74.82;102601.50;4977663;28;45324;-62
2024/01/13 02:21:44;;;;;;;;;58.00;43.00;;;;;1.20;75.19;102579.69;4975610;28;47968;-60
2024/01/13 02:24:09;;;;;;;;;61.33;46.00;;;;;1.19;75.53;102588.22;4976666;28;45776;-59
2024/01/13 02:26:37;;;;;;;;;58.50;40.50;;;;;1.05;76.34;102589.84;4976403;28;45550;-59
2024/01/13 02:29:03;;;;;;;;;63.50;42.50;;;;;1.02;76.12;102599.91;4975683;28;45467;-60
2024/01/13 02:31:28;;;;;;;;;56.33;40.33;;;;;1.00;75.87;102580.88;4978696;28;46913;-61
2024/01/13 02:33:54;;;;;;;;;56.50;39.75;;;;;1.09;76.40;102596.97;4980209;28;45509;-61
2024/01/13 02:36:19;;;;;;;;;58.25;39.25;;;;;1.13;75.85;102593.84;4980349;28;45542;-60
2024/01/13 02:38:45;;;;;;;;;60.67;42.67;;;;;1.20;76.24;102590.91;4980146;28;45434;-63
2024/01/13 02:41:10;;;;;;;;;66.25;42.25;;;;;1.22;76.00;102591.91;4979978;28;45896;-63
2024/01/13 02:43:52;;;;;;;;;51.25;37.00;;;;;1.18;75.90;102583.84;4979909;28;45656;-59
2024/01/13 02:46:27;;;;;;;;;40.75;33.00;;;;;1.22;75.77;102589.31;4980102;28;45450;-60
2024/01/13 02:48:56;;;;;;;;;51.00;36.50;;;;;1.25;75.76;102586.06;4980100;28;45478;-61
2024/01/13 02:51:22;;;;;;;;;56.50;41.50;;;;;1.25;76.03;102581.78;4979083;28;47940;-62
2024/01/13 02:53:49;;;;;;;;;50.75;37.50;;;;;1.29;75.49;102580.31;4979776;28;45420;-61
2024/01/13 02:56:15;;;;;;;;;54.50;35.00;;;;;1.33;75.87;102579.75;4979837;28;45466;-63
2024/01/13 02:58:41;;;;;;;;;54.00;34.00;;;;;1.33;75.65;102574.59;4980378;28;45491;-62
2024/01/13 03:01:08;;;;;;;;;60.00;43.67;;;;;1.43;75.09;102564.09;4978688;28;46032;-60
2024/01/13 03:03:34;;;;;;;;;55.00;39.50;;;;;1.36;74.80;102548.97;4979745;28;45486;-61
2024/01/13 03:06:01;;;;;;;;;58.50;42.25;;;;;1.40;75.57;102556.16;4979332;28;45244;-61
2024/01/13 03:08:29;;;;;;;;;56.00;41.00;;;;;1.43;75.70;102558.03;4979779;28;45537;-63
2024/01/13 03:11:05;;;;;;;;;56.75;40.75;;;;;1.43;75.32;102561.50;4976246;28;46706;-61
2024/01/13 03:13:31;;;;;;;;;58.33;42.33;;;;;1.25;74.07;102532.72;4961287;28;45494;-62
2024/01/13 03:15:57;;;;;;;;;56.25;41.00;;;;;1.38;75.31;102552.56;4978576;28;45499;-64
2024/01/13 03:18:22;;;;;;;;;58.00;43.00;;;;;1.19;75.21;102522.00;4979220;28;45407;-63
2024/01/13 03:20:48;;;;;;;;;53.75;40.50;;;;;1.23;74.73;102523.09;4978047;28;46128;-64
2024/01/13 03:23:13;;;;;;;;;57.25;38.75;;;;;1.32;74.92;102533.16;4978493;28;45916;-63
2024/01/13 03:25:39;;;;;;;;;58.50;40.50;;;;;1.30;74.97;102538.22;4978989;28;45517;-64
2024/01/13 03:28:05;;;;;;;;;56.00;43.67;;;;;1.31;75.44;102529.69;4978040;28;45448;-68
2024/01/13 03:30:30;;;;;;;;;58.00;38.00;;;;;1.25;74.75;102527.56;4977825;28;45633;-67
2024/01/13 03:32:56;;;;;;;;;52.75;34.50;;;;;1.09;75.46;102523.84;4976991;28;45669;-66
2024/01/13 03:35:22;;;;;;;;;50.00;36.75;;;;;0.90;75.59;102514.81;4976689;28;45737;-68
2024/01/13 03:37:48;;;;;;;;;51.75;33.50;;;;;1.05;75.31;102517.59;4978226;28;45367;-68
2024/01/13 03:40:14;;;;;;;;;50.75;35.00;;;;;1.24;75.63;102522.31;4977972;28;46557;-66
2024/01/13 03:42:40;;;;;;;;;50.50;36.00;;;;;1.20;75.50;102479.00;4977668;28;46158;-63
2024/01/13 03:45:06;;;;;;;;;42.50;31.75;;;;;1.50;74.65;102500.84;4977850;28;45245;-61
2024/01/13 03:47:31;;;;;;;;;45.75;30.00;;;;;1.50;74.24;102475.03;4976721;28;45408;-63
2024/01/13 03:49:57;;;;;;;;;50.00;34.75;;;;;1.73;73.72;102489.44;4977398;28;47725;-64
2024/01/13 03:52:22;;;;;;;;;52.75;38.00;;;;;1.78;74.07;102476.84;4977327;28;45446;-62
2024/01/13 03:54:48;;;;;;;;;57.25;41.50;;;;;1.81;73.25;102483.09;4976292;28;45768;-63
2024/01/13 03:57:14;;;;;;;;;50.00;37.25;;;;;1.76;73.59;102486.19;4977822;28;45335;-61
2024/01/13 03:59:39;;;;;;;;;52.75;36.25;;;;;1.68;73.26;102483.09;4931290;28;1332562;-60
2024/01/13 04:02:05;;;;;;;;;48.00;35.50;;;;;1.58;73.71;102494.50;4978474;28;45335;-61
2024/01/13 04:04:30;;;;;;;;;52.00;37.00;;;;;1.46;74.50;102488.53;4977178;28;45521;-62
2024/01/13 04:06:57;;;;;;;;;49.50;39.00;;;;;1.43;74.41;102489.22;4978603;28;45486;-64
2024/01/13 04:09:22;;;;;;;;;51.50;37.25;;;;;1.38;74.50;102477.69;4978167;28;45409;-61
2024/01/13 04:11:48;;;;;;;;;47.00;36.50;;;;;1.32;74.28;102486.69;4978264;28;45450;-60
2024/01/13 04:14:13;;;;;;;;;51.75;36.00;;;;;1.19;75.24;102464.34;4978383;28;45216;-60
2024/01/13 04:16:39;;;;;;;;;54.00;37.25;;;;;1.29;75.48;102476.19;4978890;28;45327;-60
2024/01/13 04:19:08;;;;;;;;;50.00;36.00;;;;;1.19;75.13;102478.13;4978095;28;45572;-61
2024/01/13 04:21:35;;;;;;;;;50.25;36.25;;;;;0.93;75.10;102442.81;4978136;28;45408;-62
2024/01/13 04:24:00;;;;;;;;;53.00;38.00;;;;;0.87;75.76;102441.50;4978924;28;45537;-62
2024/01/13 04:26:26;;;;;;;;;43.75;33.75;;;;;1.05;75.66;102469.44;4978870;28;45455;-62
2024/01/13 04:28:52;;;;;;;;;50.00;35.50;;;;;0.93;76.02;102473.78;4976153;28;46751;-60
2024/01/13 04:31:18;;;;;;;;;45.75;35.00;;;;;0.86;75.97;102483.56;4978497;28;45301;-62
2024/01/13 04:33:44;;;;;;;;;53.50;34.50;;;;;0.70;76.54;102454.13;4978482;28;45519;-61
2024/01/13 04:36:10;;;;;;;;;41.25;34.00;;;;;0.72;76.10;102438.75;4978290;28;45259;-61
2024/01/13 04:38:35;;;;;;;;;52.25;33.50;;;;;0.91;75.64;102469.28;4978106;28;45400;-61
2024/01/13 04:41:01;;;;;;;;;52.75;34.25;;;;;0.99;75.28;102483.59;4993428;28;45483;-62
2024/01/13 04:43:27;;;;;;;;;50.00;36.50;;;;;0.95;75.27;102482.50;4979188;28;45513;-60
2024/01/13 04:45:52;;;;;;;;;51.50;34.50;;;;;0.96;75.46;102479.13;4978327;28;45722;-65
2024/01/13 04:48:18;;;;;;;;;49.00;36.25;;;;;0.69;75.75;102451.41;4976690;28;45463;-62
2024/01/13 04:50:44;;;;;;;;;48.75;38.50;;;;;0.82;75.22;102478.16;4977907;28;45442;-61
2024/01/13 04:53:09;;;;;;;;;47.75;30.50;;;;;0.78;76.11;102477.84;4977252;28;45467;-60
2024/01/13 04:55:35;;;;;;;;;51.25;34.25;;;;;0.81;75.85;102473.81;4977955;28;45495;-63
2024/01/13 04:58:00;;;;;;;;;51.25;35.25;;;;;0.79;75.62;102461.59;4977845;28;45493;-63
2024/01/13 05:00:27;;;;;;;;;46.00;34.75;;;;;0.74;75.55;102471.59;4978699;28;45785;-61
2024/01/13 05:02:53;;;;;;;;;52.75;37.00;;;;;0.71;76.72;102460.16;4977024;28;45600;-60
2024/01/13 05:05:19;;;;;;;;;45.25;31.75;;;;;0.71;76.53;102449.84;4977813;28;45395;-61
2024/01/13 05:07:44;;;;;;;;;50.75;35.00;;;;;0.74;76.58;102455.22;4977332;28;45569;-67
2024/01/13 05:10:11;;;;;;;;;48.25;36.75;;;;;0.59;76.10;102445.66;4977473;28;45392;-62
2024/01/13 05:12:36;;;;;;;;;47.25;31.00;;;;;0.66;76.41;102456.38;4977483;28;45409;-61
2024/01/13 05:15:02;;;;;;;;;41.50;27.75;;;;;0.63;76.69;102446.75;4977988;28;45455;-61
2024/01/13 05:17:27;;;;;;;;;45.50;35.50;;;;;0.68;76.27;102454.78;4976898;28;46450;-61
2024/01/13 05:19:53;;;;;;;;;52.75;37.00;;;;;0.59;76.20;102424.09;4977192;28;45564;-61
2024/01/13 05:22:18;;;;;;;;;52.50;35.50;;;;;0.67;76.80;102434.97;4978872;28;45429;-62
2024/01/13 05:24:44;;;;;;;;;46.00;35.50;;;;;0.62;76.58;102417.47;4977905;28;45543;-61
2024/01/13 05:27:09;;;;;;;;;48.75;35.50;;;;;0.75;76.61;102423.47;4977920;28;45483;-60
2024/01/13 05:29:35;;;;;;;;;53.75;38.50;;;;;0.79;77.01;102435.81;4976008;28;45460;-61
2024/01/13 05:32:01;;;;;;;;;41.00;24.25;;;;;0.74;76.91;102419.13;4977650;28;45501;-66
2024/01/13 05:34:27;;;;;;;;;53.25;37.75;;;;;0.84;76.98;102426.69;4978297;28;45423;-61
2024/01/13 05:36:53;;;;;;;;;53.50;34.00;;;;;0.75;76.36;102408.91;4975462;28;48009;-61
2024/01/13 05:39:18;;;;;;;;;51.75;34.25;;;;;0.74;76.90;102406.22;4976784;28;45360;-61
2024/01/13 05:41:44;;;;;;;;;45.25;32.00;;;;;0.82;77.06;102408.53;4976515;28;45645;-64
2024/01/13 05:44:09;;;;;;;;;53.00;35.00;;;;;0.82;76.86;102407.63;4976251;28;45381;-61
2024/01/13 05:46:35;;;;;;;;;51.00;36.00;;;;;0.89;76.92;102402.09;4976660;28;45689;-62
2024/01/13 05:49:03;;;;;;;;;54.00;37.75;;;;;0.97;76.50;102413.84;4977588;28;45462;-65
2024/01/13 05:51:29;;;;;;;;;46.00;34.25;;;;;0.98;76.16;102414.75;4976787;28;45386;-61
2024/01/13 05:53:54;;;;;;;;;56.75;37.00;;;;;0.91;76.25;102404.78;4978699;28;45403;-61
2024/01/13 05:56:20;;;;;;;;;51.25;38.75;;;;;0.97;75.79;102403.53;4977224;28;46333;-62
2024/01/13 05:58:45;;;;;;;;;64.33;49.00;;;;;1.00;75.65;102405.44;4975883;28;45578;-60
2024/01/13 06:01:11;;;;;;;;;68.00;47.00;;;;;0.93;75.85;102386.06;4960249;28;45538;-61
2024/01/13 06:03:36;;;;;;;;;48.00;37.00;;;;;1.14;75.98;102401.16;4974793;28;45498;-63
2024/01/13 06:06:02;;;;;;;;;56.50;38.75;;;;;1.24;75.35;102398.44;4974522;28;47125;-61
2024/01/13 06:08:29;;;;;;;;;53.50;36.00;;;;;1.10;75.34;102397.50;4975277;28;45462;-63
2024/01/13 06:10:54;;;;;;;;;44.75;31.25;;;;;0.85;75.47;102363.97;4976333;28;45423;-62
2024/01/13 06:13:20;;;;;;;;;46.25;34.75;;;;;0.92;75.74;102373.03;4977680;28;45293;-60
2024/01/13 06:15:45;;;;;;;;;52.50;34.50;;;;;1.06;76.09;102396.38;4976623;28;45992;-61
2024/01/13 06:18:11;;;;;;;;;48.25;35.50;;;;;1.06;76.19;102386.06;4975194;28;45470;-62
2024/01/13 06:20:36;;;;;;;;;42.00;32.25;;;;;1.00;75.91;102367.59;4976979;28;45692;-62
2024/01/13 06:23:02;;;;;;;;;47.25;31.25;;;;;1.12;75.51;102374.38;4975912;28;45580;-62
2024/01/13 06:25:28;;;;;;;;;50.50;37.00;;;;;1.19;75.73;102377.47;4975786;28;46219;-61
2024/01/13 06:27:54;;;;;;;;;54.25;37.75;;;;;1.21;74.95;102362.06;4974266;28;45895;-61
2024/01/13 06:30:19;;;;;;;;;49.75;37.00;;;;;1.21;75.34;102362.97;4976234;28;45769;-60
2024/01/13 06:32:45;;;;;;;;;48.00;35.00;;;;;1.13;74.89;102369.31;4974289;28;45640;-62
2024/01/13 06:35:11;;;;;;;;;41.25;31.75;;;;;1.16;75.38;102368.63;4975053;28;46806;-61
2024/01/13 06:37:36;;;;;;;;;45.50;33.00;;;;;1.21;74.76;102380.13;4974376;28;45799;-60
2024/01/13 06:40:02;;;;;;;;;39.50;28.75;;;;;1.23;75.93;102369.16;4976444;28;45332;-62
2024/01/13 06:42:28;;;;;;;;;46.50;34.75;;;;;1.38;74.99;102378.69;4976823;28;45974;-62
2024/01/13 06:44:54;;;;;;;;;44.25;32.50;;;;;1.44;74.60;102372.22;4977286;28;46454;-63
2024/01/13 06:47:20;;;;;;;;;46.50;33.75;;;;;1.54;74.88;102375.41;4976422;28;45411;-67
2024/01/13 06:49:45;;;;;;;;;43.75;30.50;;;;;1.65;74.66;102379.56;4977824;28;45435;-70
2024/01/13 06:52:12;;;;;;;;;54.75;37.00;;;;;1.55;73.90;102357.44;4976822;28;45474;-62
2024/01/13 06:54:38;;;;;;;;;49.00;33.25;;;;;1.49;72.84;102375.09;4974815;28;46660;-62
2024/01/13 06:57:04;;;;;;;;;41.00;33.00;;;;;1.27;73.92;102354.75;4975920;28;45548;-60
2024/01/13 06:59:29;;;;;;;;;53.00;32.25;;;;;1.23;73.60;102370.81;4975224;28;45529;-65
2024/01/13 07:01:55;;;;;;;;;50.25;35.50;;;;;1.35;73.34;102378.47;4975367;28;45676;-63
2024/01/13 07:04:21;;;;;;;;;46.75;34.75;;;;;1.22;73.51;102377.66;4975569;28;45566;-64
2024/01/13 07:06:47;;;;;;;;;59.75;38.00;;;;;1.06;74.50;102373.16;4969894;28;45561;-64
2024/01/13 07:09:12;;;;;;;;;44.50;30.25;;;;;0.95;74.91;102368.06;4974594;28;45384;-66
2024/01/13 07:11:38;;;;;;;;;45.50;34.75;;;;;0.86;74.83;102365.78;4975367;28;45558;-65
2024/01/13 07:14:03;;;;;;;;;52.25;36.75;;;;;0.81;75.47;102370.63;4975408;28;45457;-65
2024/01/13 07:16:29;;;;;;;;;45.50;31.50;;;;;0.66;76.39;102374.72;4978404;28;45414;-64
2024/01/13 07:18:54;;;;;;;;;46.50;35.75;;;;;0.67;76.76;102381.69;4980379;28;45407;-64
2024/01/13 07:21:20;;;;;;;;;53.00;35.50;;;;;0.68;75.97;102375.75;4981095;28;45426;-64
2024/01/13 07:23:45;;;;;;;;;50.25;32.00;;;;;0.72;76.64;102377.75;4979591;28;46076;-67
2024/01/13 07:26:11;;;;;;;;;45.75;33.00;;;;;0.62;76.47;102357.28;4979130;28;45372;-64
2024/01/13 07:28:37;;;;;;;;;43.25;33.50;;;;;0.62;76.48;102362.44;4979393;28;45485;-63
2024/01/13 07:31:03;;;;;;;;;41.25;31.25;;;;;0.63;76.54;102367.69;4994701;28;45646;-65
2024/01/13 07:33:28;;;;;;;;;46.25;37.00;;;;;0.52;75.81;102334.22;4977569;28;48042;-66
2024/01/13 07:35:54;;;;;;;;;39.00;32.50;;;;;0.58;75.77;102351.00;4978215;28;45505;-65
2024/01/13 07:38:19;;;;;;;;;54.00;35.25;;;;;0.62;75.92;102355.59;4979462;28;45340;-65
2024/01/13 07:40:45;;;;;;;;;48.25;32.75;;;;;0.66;76.33;102364.41;4976679;28;45518;-64
2024/01/13 07:43:11;;;;;;;;;48.00;33.25;;;;;0.71;76.18;102349.25;4979957;28;45926;-65
2024/01/13 07:45:37;;;;;;;;;47.00;32.25;;;;;0.80;75.45;102358.50;4978837;28;45484;-65
2024/01/13 07:48:03;;;;;;;;;41.00;31.75;;;;;0.86;75.42;102355.47;4978724;28;45483;-66
2024/01/13 07:50:28;;;;;;;;;47.00;32.75;;;;;0.80;75.53;102363.66;4963695;28;45637;-68
2024/01/13 07:52:54;;;;;;;;;46.25;31.50;;;;;0.80;75.49;102366.25;4973961;28;45382;-65
2024/01/13 07:55:19;;;;;;;;;44.50;33.50;;;;;0.75;74.78;102367.63;4978691;28;45481;-65
2024/01/13 07:57:45;;;;;;;;;46.75;29.50;;;;;0.70;74.84;102352.66;4978558;28;45268;-65
2024/01/13 08:00:12;;;;;;;;;46.25;30.75;;;;;0.80;74.91;102363.66;4978564;28;45383;-65
2024/01/13 08:02:38;;;;;;;;;43.25;33.75;;;;;0.75;75.15;102356.44;4977354;28;46705;-62
2024/01/13 08:05:04;;;;;;;;;33.00;27.50;;;;;0.74;74.42;102363.28;4977723;28;45602;-65
2024/01/13 08:07:30;;;;;;;;;41.00;28.50;;;;;0.74;74.54;102352.06;4971871;28;45368;-64
2024/01/13 08:09:55;;;;;;;;;39.25;25.25;;;;;0.67;74.85;102324.06;4977242;28;45443;-65
2024/01/13 08:12:21;;;;;;;;;38.50;34.00;;;;;0.59;74.94;102319.28;4976235;28;48219;-64
2024/01/13 08:14:46;;;;;;;;;44.75;28.00;;;;;0.65;74.81;102331.69;4978679;28;45176;-66
2024/01/13 08:17:12;;;;;;;;;49.75;34.25;;;;;0.69;75.18;102331.13;4980107;28;45467;-65
2024/01/13 08:19:38;;;;;;;;;55.75;35.00;;;;;0.56;75.45;102331.06;4980029;28;45450;-64
2024/01/13 08:22:04;;;;;;;;;54.50;35.50;;;;;0.51;75.99;102337.59;4977402;28;46830;-65
2024/01/13 08:24:30;;;;;;;;;45.75;35.00;;;;;0.56;76.75;102331.97;4978203;28;45519;-64
2024/01/13 08:26:56;;;;;;;;;52.00;34.25;;;;;0.59;75.47;102319.28;4976913;28;45358;-65
2024/01/13 08:29:22;;;;;;;;;44.00;33.00;;;;;0.63;75.32;102318.69;4976251;28;45646;-64
2024/01/13 08:31:50;;;;;;;;;37.00;28.50;;;;;0.68;75.62;102315.53;4977913;28;46144;-64
2024/01/13 08:34:16;;;;;;;;;49.25;36.25;;;;;0.71;75.76;102314.03;4974791;28;45298;-64
2024/01/13 08:36:42;;;;;;;;;43.25;34.50;;;;;0.73;75.76;102311.56;4977967;28;45436;-66
2024/01/13 08:39:08;;;;;;;;;51.50;34.25;;;;;0.82;76.03;102328.56;4990021;28;45390;-66
2024/01/13 08:41:34;;;;;;;;;49.25;38.25;;;;;0.84;75.57;102326.97;4966890;28;46631;-64
2024/01/13 08:44:00;;;;;;;;;52.67;37.67;;;;;0.89;75.08;102331.56;4976743;28;45696;-65
2024/01/13 08:46:26;;;;;;;;;55.50;36.75;;;;;0.77;75.27;102322.22;4977639;28;45288;-65
2024/01/13 08:48:52;;;;;;;;;54.67;38.67;;;;;0.73;75.05;102335.69;4977874;28;45448;-63
2024/01/13 08:51:17;;;;;;;;;38.25;29.25;;;;;0.55;76.17;102316.41;4977136;28;46076;-63
2024/01/13 08:53:44;;;;;;;;;57.67;41.00;;;;;0.54;75.64;102336.13;4975406;28;45566;-65
2024/01/13 08:56:10;;;;;;;;;60.75;40.50;;;;;0.41;76.68;102342.13;4977058;28;45371;-65
2024/01/13 08:58:36;;;;;;;;;56.33;37.00;;;;;0.45;76.12;102347.47;4978312;28;45557;-66
2024/01/13 09:01:02;;;;;;;;;46.00;35.25;;;;;0.48;76.60;102347.72;4977982;28;45540;-66
2024/01/13 09:03:28;;;;;;;;;52.00;37.00;;;;;0.34;76.73;102357.97;4978640;28;45499;-66
2024/01/13 09:05:55;;;;;;;;;51.67;37.00;;;;;0.35;76.28;102343.38;4972385;28;45617;-65
2024/01/13 09:08:21;;;;;;;;;51.67;38.67;;;;;0.35;76.59;102338.22;4975848;28;45317;-65
2024/01/13 09:10:46;;;;;;;;;44.33;33.33;;;;;0.44;76.56;102363.75;4978462;28;45471;-64
2024/01/13 09:13:12;;;;;;;;;58.33;39.33;;;;;0.42;76.03;102348.16;4977027;28;45439;-64
2024/01/13 09:15:37;;;;;;;;;53.33;37.00;;;;;0.54;76.75;102371.31;4976353;28;45454;-64
2024/01/13 09:18:03;;;;;;;;;51.00;36.75;;;;;0.60;76.07;102371.75;4978257;28;45601;-64
2024/01/13 09:20:29;;;;;;;;;50.25;36.25;;;;;0.53;75.54;102359.22;4974642;28;46229;-64
2024/01/13 09:22:55;;;;;;;;;40.25;30.75;;;;;0.67;75.88;102368.81;4975623;28;45339;-62
2024/01/13 09:25:20;;;;;;;;;38.75;27.75;;;;;0.74;75.56;102371.00;4976853;28;45453;-65
2024/01/13 09:27:46;;;;;;;;;47.50;29.50;;;;;0.77;75.07;102373.78;4978972;28;45530;-64
2024/01/13 09:30:12;;;;;;;;;50.00;31.75;;;;;0.84;74.12;102370.84;4978662;28;46191;-66
2024/01/13 09:32:37;;;;;;;;;46.50;35.25;;;;;0.85;74.55;102374.31;4978703;28;45573;-65
2024/01/13 09:35:04;;;;;;;;;52.75;35.25;;;;;0.75;74.23;102370.22;4976834;28;45828;-65
2024/01/13 09:37:30;;;;;;;;;49.00;34.50;;;;;0.60;74.01;102333.97;4975883;28;45533;-66
2024/01/13 09:39:55;;;;;;;;;54.75;36.00;;;;;0.62;73.36;102337.56;4969395;28;47647;-64
2024/01/13 09:42:30;;;;;;;;;47.75;33.25;;;;;0.63;74.17;102357.38;4975466;28;45402;-65
2024/01/13 09:44:55;;;;;;;;;43.75;34.50;;;;;0.58;74.54;102345.84;4977064;28;45343;-64
2024/01/13 09:47:22;;;;;;;;;52.00;39.00;;;;;0.65;73.98;102364.34;4978305;28;45488;-64
2024/01/13 09:49:50;;;;;;;;;50.00;37.00;;;;;0.66;74.30;102369.56;4992508;28;46866;-66
2024/01/13 09:52:16;;;;;;;;;46.75;36.00;;;;;0.66;73.67;102374.72;4977392;28;45468;-65
2024/01/13 09:54:49;;;;;;;;;49.00;39.00;;;;;0.65;73.74;102357.50;4977540;28;45430;-68
2024/01/13 09:57:15;;;;;;;;;37.50;34.00;;;;;0.75;74.03;102392.53;4977714;28;45503;-64
2024/01/13 09:59:41;;;;;;;;;50.33;36.33;;;;;0.82;73.86;102398.22;4976447;28;45495;-65
2024/01/13 10:02:12;;;;;;;;;49.50;34.75;;;;;0.90;73.02;102400.41;4976713;28;45514;-64
2024/01/13 10:04:40;;;;;;;;;46.00;37.75;;;;;0.96;72.57;102393.09;4976381;28;45534;-64
2024/01/13 10:07:08;;;;;;;;;46.00;33.33;;;;;0.78;72.90;102357.53;4977907;28;45530;-65
2024/01/13 10:09:33;;;;;;;;;47.00;36.25;;;;;0.95;72.41;102393.88;4976670;28;45749;-65
2024/01/13 10:11:59;;;;;;;;;42.25;31.25;;;;;0.91;72.90;102392.78;4975725;28;45487;-64
2024/01/13 10:14:25;;;;;;;;;49.75;34.75;;;;;0.97;72.77;102377.72;4976565;28;45399;-66
2024/01/13 10:16:50;;;;;;;;;45.50;34.50;;;;;1.01;72.37;102376.25;4978190;28;46135;-67
2024/01/13 10:19:16;;;;;;;;;43.50;36.50;;;;;1.07;72.77;102386.97;4976881;28;45399;-70
2024/01/13 10:21:42;;;;;;;;;46.00;35.00;;;;;1.04;72.74;102374.78;4976584;28;45316;-63
2024/01/13 10:24:07;;;;;;;;;46.25;35.25;;;;;1.00;72.53;102377.94;4977803;28;45565;-63
2024/01/13 10:26:33;;;;;;;;;54.00;36.75;;;;;1.04;71.98;102379.00;4978145;28;45418;-64
2024/01/13 10:28:59;;;;;;;;;39.25;33.25;;;;;0.96;72.18;102372.47;4977969;28;45560;-64
2024/01/13 10:31:25;;;;;;;;;46.50;35.75;;;;;0.91;71.93;102355.78;4978066;28;45415;-64
2024/01/13 10:33:52;;;;;;;;;50.33;38.00;;;;;0.90;72.41;102357.44;4975817;28;45314;-66
2024/01/13 10:36:22;;;;;;;;;46.75;33.75;;;;;0.82;72.71;102354.34;4976581;28;45439;-65
2024/01/13 10:38:49;;;;;;;;;51.75;34.75;;;;;0.69;72.89;102335.38;4976072;28;47829;-64
2024/01/13 10:41:15;;;;;;;;;47.75;35.25;;;;;0.63;73.21;102334.16;4975797;28;45510;-63
2024/01/13 10:43:43;;;;;;;;;47.50;38.25;;;;;0.72;73.74;102346.78;4976470;28;45534;-65
2024/01/13 10:46:11;;;;;;;;;55.33;35.00;;;;;0.68;72.75;102334.47;4976388;28;45270;-66
2024/01/13 10:48:47;;;;;;;;;43.50;33.25;;;;;0.63;72.57;102344.47;4976225;28;46136;-65
2024/01/13 10:51:36;;;;;;;;;50.25;35.25;;;;;0.68;73.46;102337.06;4975493;28;45939;-67
2024/01/13 10:54:03;;;;;;;;;52.00;38.00;;;;;0.77;72.89;102323.91;4979950;28;45537;-64
2024/01/13 10:56:30;;;;;;;;;55.25;36.25;;;;;0.75;72.86;102325.47;4979601;28;45426;-63
2024/01/13 10:58:59;;;;;;;;;55.00;39.00;;;;;0.66;73.03;102291.31;4980584;28;46158;-64
2024/01/13 11:01:25;;;;;;;;;55.00;38.50;;;;;0.91;72.81;102309.34;4979443;28;45622;-63
2024/01/13 11:03:51;;;;;;;;;51.75;39.00;;;;;0.94;71.52;102296.63;4980853;28;45324;-63
2024/01/13 11:06:17;;;;;;;;;50.50;38.75;;;;;0.94;71.82;102294.06;4978483;28;45479;-64
2024/01/13 11:08:44;;;;;;;;;49.00;36.67;;;;;0.90;71.84;102292.94;4979849;28;45484;-63
2024/01/13 11:11:13;;;;;;;;;55.00;40.00;;;;;0.82;72.58;102283.81;4980832;28;45605;-65